createdAt,value
2019-02-06T00:00:33.550Z,99.99
2019-02-06T00:01:33.523Z,99.99
2019-02-06T00:02:33.243Z,99.99
2019-02-06T00:03:33.216Z,99.99
2019-02-06T00:04:33.451Z,99.99
2019-02-06T00:05:33.218Z,99.99
2019-02-06T00:06:33.443Z,99.99
2019-02-06T00:07:33.641Z,99.99
2019-02-06T00:08:33.468Z,99.99
2019-02-06T00:09:33.337Z,99.99
2019-02-06T00:10:33.066Z,99.99
2019-02-06T00:11:35.037Z,99.99
2019-02-06T00:12:33.080Z,99.99
2019-02-06T00:13:33.021Z,99.99
2019-02-06T00:14:33.574Z,99.99
2019-02-06T00:15:33.236Z,99.99
2019-02-06T00:16:33.205Z,99.99
2019-02-06T00:17:33.211Z,99.99
2019-02-06T00:18:33.128Z,99.99
2019-02-06T00:19:33.105Z,99.99
2019-02-06T00:20:33.148Z,99.99
2019-02-06T00:21:33.130Z,99.99
2019-02-06T00:22:33.040Z,99.99
2019-02-06T00:23:32.765Z,99.99
2019-02-06T00:24:32.995Z,99.99
2019-02-06T00:25:32.723Z,99.99
2019-02-06T00:26:32.948Z,99.99
2019-02-06T00:27:32.923Z,99.99
2019-02-06T00:28:32.904Z,99.99
2019-02-06T00:29:32.756Z,99.99
2019-02-06T00:30:32.854Z,99.99
2019-02-06T00:31:32.836Z,99.99
2019-02-06T00:32:32.816Z,99.99
2019-02-06T00:33:32.544Z,99.99
2019-02-06T00:34:32.773Z,99.99
2019-02-06T00:35:32.744Z,99.99
2019-02-06T00:36:32.729Z,99.99
2019-02-06T00:37:33.042Z,99.99
2019-02-06T00:38:32.679Z,99.99
2019-02-06T00:39:32.667Z,99.99
2019-02-06T00:40:32.643Z,99.99
2019-02-06T00:41:32.608Z,99.99
2019-02-06T00:42:32.586Z,99.99
2019-02-06T00:43:32.317Z,99.99
2019-02-06T00:44:32.545Z,99.99
2019-02-06T00:45:32.869Z,99.99
2019-02-06T00:46:32.250Z,99.99
2019-02-06T00:47:32.572Z,99.99
2019-02-06T00:48:32.222Z,99.99
2019-02-06T00:49:32.432Z,99.99
2019-02-06T00:50:32.410Z,99.99
2019-02-06T00:51:32.396Z,99.99
2019-02-06T00:52:32.328Z,99.99
2019-02-06T00:53:32.338Z,99.99
2019-02-06T00:54:32.325Z,99.99
2019-02-06T00:55:32.293Z,99.99
2019-02-06T00:56:32.015Z,99.99
2019-02-06T00:57:32.000Z,99.99
2019-02-06T00:58:32.227Z,99.99
2019-02-06T00:59:32.206Z,99.99
2019-02-06T01:00:32.449Z,99.99
2019-02-06T01:01:32.172Z,99.99
2019-02-06T01:02:32.136Z,99.99
2019-02-06T01:03:31.863Z,99.99
2019-02-06T01:04:32.143Z,99.99
2019-02-06T01:05:40.633Z,99.99
2019-02-06T01:06:31.877Z,99.99
2019-02-06T01:07:31.772Z,99.99
2019-02-06T01:08:32.022Z,99.99
2019-02-06T01:09:31.982Z,99.99
2019-02-06T01:10:31.707Z,99.99
2019-02-06T01:11:31.678Z,99.99
2019-02-06T01:12:31.916Z,99.99
2019-02-06T01:13:31.887Z,99.99
2019-02-06T01:14:31.870Z,99.99
2019-02-06T01:15:32.108Z,99.99
2019-02-06T01:16:31.825Z,99.99
2019-02-06T01:17:31.801Z,99.99
2019-02-06T01:18:31.975Z,99.99
2019-02-06T01:19:31.509Z,99.99
2019-02-06T01:20:31.479Z,99.99
2019-02-06T01:21:31.715Z,99.99
2019-02-06T01:22:31.431Z,99.99
2019-02-06T01:23:31.666Z,99.99
2019-02-06T01:24:31.644Z,99.99
2019-02-06T01:25:31.621Z,99.99
2019-02-06T01:26:31.345Z,99.99
2019-02-06T01:27:31.570Z,99.99
2019-02-06T01:28:31.296Z,99.99
2019-02-06T01:29:31.528Z,99.99
2019-02-06T01:30:31.809Z,99.99
2019-02-06T01:31:31.488Z,99.99
2019-02-06T01:32:31.458Z,99.99
2019-02-06T01:33:31.441Z,99.99
2019-02-06T01:34:31.426Z,99.99
2019-02-06T01:35:31.141Z,99.99
2019-02-06T01:36:31.125Z,99.99
2019-02-06T01:37:31.369Z,99.99
2019-02-06T01:38:31.101Z,99.99
2019-02-06T01:39:31.048Z,99.99
2019-02-06T01:40:31.030Z,99.99
2019-02-06T01:41:31.263Z,99.99
2019-02-06T01:42:31.237Z,99.99
2019-02-06T01:43:31.227Z,99.99
2019-02-06T01:44:31.188Z,99.99
2019-02-06T01:45:31.225Z,99.99
2019-02-06T01:46:31.142Z,99.99
2019-02-06T01:47:30.878Z,99.99
2019-02-06T01:48:30.852Z,99.99
2019-02-06T01:49:31.078Z,99.99
2019-02-06T01:50:31.057Z,99.99
2019-02-06T01:51:31.062Z,99.99
2019-02-06T01:52:31.012Z,99.99
2019-02-06T01:53:30.995Z,99.99
2019-02-06T01:54:30.716Z,99.99
2019-02-06T01:55:30.688Z,99.99
2019-02-06T01:56:30.918Z,99.99
2019-02-06T01:57:30.640Z,99.99
2019-02-06T01:58:30.635Z,99.99
2019-02-06T01:59:30.604Z,99.99
2019-02-06T02:00:31.217Z,99.99
2019-02-06T02:01:30.818Z,99.99
2019-02-06T02:02:30.531Z,99.99
2019-02-06T02:03:30.506Z,99.99
2019-02-06T02:04:30.741Z,99.99
2019-02-06T02:05:30.464Z,99.99
2019-02-06T02:06:30.443Z,99.99
2019-02-06T02:07:30.668Z,99.99
2019-02-06T02:08:30.656Z,99.99
2019-02-06T02:09:30.381Z,99.99
2019-02-06T02:10:30.349Z,99.99
2019-02-06T02:11:30.331Z,99.99
2019-02-06T02:12:30.562Z,99.99
2019-02-06T02:13:30.537Z,99.99
2019-02-06T02:14:30.255Z,99.99
2019-02-06T02:15:30.734Z,99.99
2019-02-06T02:16:30.467Z,99.99
2019-02-06T02:17:30.452Z,99.99
2019-02-06T02:18:30.428Z,99.99
2019-02-06T02:19:30.399Z,99.99
2019-02-06T02:20:30.121Z,99.99
2019-02-06T02:21:30.357Z,99.99
2019-02-06T02:22:30.342Z,99.99
2019-02-06T02:23:30.667Z,99.99
2019-02-06T02:24:30.289Z,99.99
2019-02-06T02:25:30.270Z,99.99
2019-02-06T02:26:29.989Z,99.99
2019-02-06T02:27:30.226Z,99.99
2019-02-06T02:28:30.318Z,99.99
2019-02-06T02:29:30.181Z,99.99
2019-02-06T02:30:30.171Z,99.99
2019-02-06T02:31:33.528Z,99.99
2019-02-06T02:32:29.864Z,99.99
2019-02-06T02:33:29.837Z,99.99
2019-02-06T02:34:30.077Z,99.99
2019-02-06T02:35:30.057Z,99.99
2019-02-06T02:36:29.764Z,99.99
2019-02-06T02:37:29.806Z,99.99
2019-02-06T02:38:29.976Z,99.99
2019-02-06T02:39:29.957Z,99.99
2019-02-06T02:40:29.927Z,99.99
2019-02-06T02:41:29.913Z,99.99
2019-02-06T02:42:29.890Z,99.99
2019-02-06T02:43:29.871Z,99.99
2019-02-06T02:44:29.590Z,99.99
2019-02-06T02:45:29.824Z,99.99
2019-02-06T02:46:30.054Z,99.99
2019-02-06T02:47:29.523Z,99.99
2019-02-06T02:48:29.503Z,99.99
2019-02-06T02:49:29.737Z,99.99
2019-02-06T02:50:29.755Z,99.99
2019-02-06T02:51:29.692Z,99.99
2019-02-06T02:52:29.688Z,99.99
2019-02-06T02:53:29.649Z,99.99
2019-02-06T02:54:29.886Z,99.99
2019-02-06T02:55:29.347Z,99.99
2019-02-06T02:56:29.583Z,99.99
2019-02-06T02:57:29.297Z,99.99
2019-02-06T02:58:29.277Z,99.99
2019-02-06T02:59:29.512Z,99.99
2019-02-06T03:00:29.226Z,99.99
2019-02-06T03:01:29.358Z,99.99
2019-02-06T03:02:29.440Z,99.99
2019-02-06T03:03:29.167Z,99.99
2019-02-06T03:04:29.392Z,99.99
2019-02-06T03:05:29.126Z,99.99
2019-02-06T03:06:30.781Z,99.99
2019-02-06T03:07:29.333Z,99.99
2019-02-06T03:08:29.311Z,99.99
2019-02-06T03:09:29.636Z,99.99
2019-02-06T03:10:29.258Z,99.99
2019-02-06T03:11:28.993Z,99.99
2019-02-06T03:12:29.225Z,99.99
2019-02-06T03:13:28.941Z,99.99
2019-02-06T03:14:28.923Z,99.99
2019-02-06T03:15:29.178Z,99.99
2019-02-06T03:16:29.135Z,99.99
2019-02-06T03:17:29.517Z,99.99
2019-02-06T03:18:29.392Z,99.99
2019-02-06T03:19:28.810Z,99.99
2019-02-06T03:20:29.035Z,99.99
2019-02-06T03:21:28.761Z,99.99
2019-02-06T03:22:28.742Z,99.99
2019-02-06T03:23:28.976Z,99.99
2019-02-06T03:24:28.972Z,99.99
2019-02-06T03:25:28.936Z,99.99
2019-02-06T03:26:28.905Z,99.99
2019-02-06T03:27:28.887Z,99.99
2019-02-06T03:28:28.860Z,99.99
2019-02-06T03:29:28.838Z,99.99
2019-02-06T03:30:28.832Z,99.99
2019-02-06T03:31:28.819Z,99.99
2019-02-06T03:32:29.134Z,99.99
2019-02-06T03:33:28.785Z,99.99
2019-02-06T03:34:28.471Z,99.99
2019-02-06T03:35:28.461Z,99.99
2019-02-06T03:36:39.768Z,99.99
2019-02-06T03:37:28.401Z,99.99
2019-02-06T03:38:28.679Z,99.99
2019-02-06T03:39:28.362Z,99.99
2019-02-06T03:40:28.344Z,99.99
2019-02-06T03:41:28.573Z,99.99
2019-02-06T03:42:28.548Z,99.99
2019-02-06T03:43:28.531Z,99.99
2019-02-06T03:44:28.498Z,99.99
2019-02-06T03:45:28.221Z,99.99
2019-02-06T03:46:28.452Z,99.99
2019-02-06T03:47:28.805Z,99.99
2019-02-06T03:48:28.417Z,99.99
2019-02-06T03:49:28.147Z,99.99
2019-02-06T03:50:28.108Z,99.99
2019-02-06T03:51:28.343Z,99.99
2019-02-06T03:52:28.070Z,99.99
2019-02-06T03:53:28.048Z,99.99
2019-02-06T03:54:28.283Z,99.99
2019-02-06T03:55:28.231Z,99.99
2019-02-06T03:56:28.251Z,99.99
2019-02-06T03:57:28.219Z,99.99
2019-02-06T03:58:27.937Z,99.99
2019-02-06T03:59:28.198Z,99.99
2019-02-06T04:00:28.150Z,99.99
2019-02-06T04:01:28.125Z,99.99
2019-02-06T04:02:28.370Z,99.99
2019-02-06T04:03:27.824Z,99.99
2019-02-06T04:04:27.808Z,99.99
2019-02-06T04:05:27.909Z,99.99
2019-02-06T04:06:27.758Z,99.99
2019-02-06T04:07:27.996Z,99.99
2019-02-06T04:08:27.967Z,99.99
2019-02-06T04:09:27.977Z,99.99
2019-02-06T04:10:28.019Z,99.99
2019-02-06T04:11:27.648Z,99.99
2019-02-06T04:12:27.625Z,99.99
2019-02-06T04:13:27.853Z,99.99
2019-02-06T04:14:27.603Z,99.99
2019-02-06T04:15:27.814Z,99.99
2019-02-06T04:16:27.533Z,99.99
2019-02-06T04:17:27.771Z,99.99
2019-02-06T04:18:27.747Z,99.99
2019-02-06T04:19:27.727Z,99.99
2019-02-06T04:20:27.695Z,99.99
2019-02-06T04:21:27.677Z,99.99
2019-02-06T04:22:27.402Z,99.99
2019-02-06T04:23:27.644Z,99.99
2019-02-06T04:24:27.632Z,99.99
2019-02-06T04:25:27.805Z,99.99
2019-02-06T04:26:27.601Z,99.99
2019-02-06T04:27:27.549Z,99.99
2019-02-06T04:28:27.538Z,99.99
2019-02-06T04:29:27.239Z,99.99
2019-02-06T04:30:27.480Z,99.99
2019-02-06T04:31:27.467Z,99.99
2019-02-06T04:32:27.187Z,99.99
2019-02-06T04:33:27.542Z,99.99
2019-02-06T04:34:27.131Z,99.99
2019-02-06T04:35:27.394Z,99.99
2019-02-06T04:36:27.350Z,99.99
2019-02-06T04:37:27.349Z,99.99
2019-02-06T04:38:27.294Z,99.99
2019-02-06T04:39:27.025Z,99.99
2019-02-06T04:40:27.009Z,99.99
2019-02-06T04:41:26.980Z,99.99
2019-02-06T04:42:26.953Z,99.99
2019-02-06T04:43:27.190Z,99.99
2019-02-06T04:44:27.164Z,99.99
2019-02-06T04:45:27.165Z,99.99
2019-02-06T04:46:26.868Z,99.99
2019-02-06T04:47:27.104Z,99.99
2019-02-06T04:48:27.313Z,99.99
2019-02-06T04:49:26.798Z,99.99
2019-02-06T04:50:26.778Z,99.99
2019-02-06T04:51:27.014Z,99.99
2019-02-06T04:52:26.737Z,99.99
2019-02-06T04:53:26.965Z,99.99
2019-02-06T04:54:26.691Z,99.99
2019-02-06T04:55:26.919Z,99.99
2019-02-06T04:56:26.743Z,99.99
2019-02-06T04:57:26.881Z,99.99
2019-02-06T04:58:26.855Z,99.99
2019-02-06T04:59:26.844Z,99.99
2019-02-06T05:00:26.827Z,99.99
2019-02-06T05:01:26.815Z,99.99
2019-02-06T05:02:26.783Z,99.99
2019-02-06T05:03:28.209Z,99.99
2019-02-06T05:04:26.854Z,99.99
2019-02-06T05:05:26.700Z,99.99
2019-02-06T05:06:26.681Z,99.99
2019-02-06T05:07:26.654Z,99.99
2019-02-06T05:08:26.639Z,99.99
2019-02-06T05:09:26.615Z,99.99
2019-02-06T05:10:26.590Z,99.99
2019-02-06T05:11:26.745Z,99.99
2019-02-06T05:12:26.295Z,99.99
2019-02-06T05:13:26.527Z,99.99
2019-02-06T05:14:26.504Z,99.99
2019-02-06T05:15:26.226Z,99.99
2019-02-06T05:16:26.478Z,99.99
2019-02-06T05:17:26.442Z,99.99
2019-02-06T05:18:27.009Z,99.99
2019-02-06T05:19:26.388Z,99.99
2019-02-06T05:20:26.384Z,99.99
2019-02-06T05:21:26.349Z,99.99
2019-02-06T05:22:26.070Z,99.99
2019-02-06T05:23:26.315Z,99.99
2019-02-06T05:24:26.026Z,99.99
2019-02-06T05:25:26.264Z,99.99
2019-02-06T05:26:26.516Z,99.99
2019-02-06T05:27:26.218Z,99.99
2019-02-06T05:28:25.938Z,99.99
2019-02-06T05:29:25.935Z,99.99
2019-02-06T05:30:26.086Z,99.99
2019-02-06T05:31:26.123Z,99.99
2019-02-06T05:32:26.105Z,99.99
2019-02-06T05:33:25.977Z,99.99
2019-02-06T05:34:25.812Z,99.99
2019-02-06T05:35:26.028Z,99.99
2019-02-06T05:36:25.843Z,99.99
2019-02-06T05:37:34.399Z,99.99
2019-02-06T05:38:25.989Z,99.99
2019-02-06T05:39:25.947Z,99.99
2019-02-06T05:40:25.925Z,99.99
2019-02-06T05:41:26.156Z,99.99
2019-02-06T05:42:25.881Z,99.99
2019-02-06T05:43:25.863Z,99.99
2019-02-06T05:44:25.856Z,99.99
2019-02-06T05:45:25.854Z,99.99
2019-02-06T05:46:25.804Z,99.99
2019-02-06T05:47:25.522Z,99.99
2019-02-06T05:48:25.772Z,99.99
2019-02-06T05:49:25.495Z,99.99
2019-02-06T05:50:25.488Z,99.99
2019-02-06T05:51:25.433Z,99.99
2019-02-06T05:52:25.736Z,99.99
2019-02-06T05:53:25.640Z,99.99
2019-02-06T05:54:25.612Z,99.99
2019-02-06T05:55:25.624Z,99.99
2019-02-06T05:56:25.941Z,99.99
2019-02-06T05:57:25.549Z,99.99
2019-02-06T05:58:25.534Z,99.99
2019-02-06T05:59:25.509Z,99.99
2019-02-06T06:00:25.491Z,99.99
2019-02-06T06:01:25.281Z,99.99
2019-02-06T06:02:25.444Z,99.99
2019-02-06T06:03:25.384Z,99.99
2019-02-06T06:04:25.403Z,99.99
2019-02-06T06:05:25.378Z,99.99
2019-02-06T06:06:25.351Z,99.99
2019-02-06T06:07:25.327Z,99.99
2019-02-06T06:08:25.050Z,99.99
2019-02-06T06:09:25.579Z,99.99
2019-02-06T06:10:25.011Z,99.99
2019-02-06T06:11:25.424Z,99.99
2019-02-06T06:12:24.960Z,99.99
2019-02-06T06:13:25.201Z,99.99
2019-02-06T06:14:25.169Z,99.99
2019-02-06T06:15:25.152Z,99.99
2019-02-06T06:16:25.126Z,99.99
2019-02-06T06:17:25.118Z,99.99
2019-02-06T06:18:25.222Z,99.99
2019-02-06T06:19:25.068Z,99.99
2019-02-06T06:20:25.035Z,99.99
2019-02-06T06:21:24.875Z,99.99
2019-02-06T06:22:24.994Z,99.99
2019-02-06T06:23:24.734Z,99.99
2019-02-06T06:24:24.955Z,99.99
2019-02-06T06:25:24.693Z,99.99
2019-02-06T06:26:25.045Z,99.99
2019-02-06T06:27:24.892Z,99.99
2019-02-06T06:28:24.860Z,99.99
2019-02-06T06:29:24.843Z,99.99
2019-02-06T06:30:24.569Z,99.99
2019-02-06T06:31:24.800Z,99.99
2019-02-06T06:32:24.770Z,99.99
2019-02-06T06:33:24.758Z,99.99
2019-02-06T06:34:24.755Z,99.99
2019-02-06T06:35:24.730Z,99.99
2019-02-06T06:36:24.687Z,99.99
2019-02-06T06:37:24.662Z,99.99
2019-02-06T06:38:24.662Z,99.99
2019-02-06T06:39:24.715Z,99.99
2019-02-06T06:40:24.600Z,99.99
2019-02-06T06:41:24.331Z,99.99
2019-02-06T06:42:26.760Z,99.99
2019-02-06T06:43:24.565Z,99.99
2019-02-06T06:44:24.521Z,99.99
2019-02-06T06:45:24.504Z,99.99
2019-02-06T06:46:24.464Z,99.99
2019-02-06T06:47:24.183Z,99.99
2019-02-06T06:48:24.680Z,99.99
2019-02-06T06:49:24.145Z,99.99
2019-02-06T06:50:24.116Z,99.99
2019-02-06T06:51:24.098Z,99.99
2019-02-06T06:52:24.074Z,99.99
2019-02-06T06:53:24.302Z,99.99
2019-02-06T06:54:24.024Z,99.99
2019-02-06T06:55:24.270Z,99.99
2019-02-06T06:56:24.471Z,99.99
2019-02-06T06:57:24.326Z,99.99
2019-02-06T06:58:24.200Z,99.99
2019-02-06T06:59:24.214Z,99.99
2019-02-06T07:00:24.172Z,99.99
2019-02-06T07:01:24.133Z,99.99
2019-02-06T07:02:24.119Z,99.99
2019-02-06T07:03:24.087Z,99.99
2019-02-06T07:04:24.071Z,99.99
2019-02-06T07:05:23.787Z,99.99
2019-02-06T07:06:24.026Z,99.99
2019-02-06T07:07:23.996Z,99.99
2019-02-06T07:08:23.722Z,99.99
2019-02-06T07:09:23.954Z,99.99
2019-02-06T07:10:23.942Z,99.99
2019-02-06T07:11:24.219Z,99.99
2019-02-06T07:12:23.891Z,99.99
2019-02-06T07:13:23.863Z,99.99
2019-02-06T07:14:23.839Z,99.99
2019-02-06T07:15:23.841Z,99.99
2019-02-06T07:16:23.801Z,99.99
2019-02-06T07:17:23.775Z,99.99
2019-02-06T07:18:23.779Z,99.99
2019-02-06T07:19:24.071Z,99.99
2019-02-06T07:20:23.712Z,99.99
2019-02-06T07:21:23.686Z,99.99
2019-02-06T07:22:23.410Z,99.99
2019-02-06T07:23:23.773Z,99.99
2019-02-06T07:24:23.625Z,99.99
2019-02-06T07:25:23.342Z,99.99
2019-02-06T07:26:23.658Z,99.99
2019-02-06T07:27:23.371Z,99.99
2019-02-06T07:28:23.288Z,99.99
2019-02-06T07:29:23.254Z,99.99
2019-02-06T07:30:23.236Z,99.99
2019-02-06T07:31:23.479Z,99.99
2019-02-06T07:32:23.451Z,99.99
2019-02-06T07:33:23.435Z,99.99
2019-02-06T07:34:23.282Z,99.99
2019-02-06T07:35:23.387Z,99.99
2019-02-06T07:36:23.105Z,99.99
2019-02-06T07:37:23.335Z,99.99
2019-02-06T07:38:26.846Z,99.99
2019-02-06T07:39:23.300Z,99.99
2019-02-06T07:40:23.270Z,99.99
2019-02-06T07:41:23.255Z,99.99
2019-02-06T07:42:23.267Z,99.99
2019-02-06T07:43:22.952Z,99.99
2019-02-06T07:44:23.193Z,99.99
2019-02-06T07:45:22.912Z,99.99
2019-02-06T07:46:23.139Z,99.99
2019-02-06T07:47:23.117Z,99.99
2019-02-06T07:48:23.095Z,99.99
2019-02-06T07:49:23.350Z,99.99
2019-02-06T07:50:23.055Z,99.99
2019-02-06T07:51:23.038Z,99.99
2019-02-06T07:52:22.758Z,99.99
2019-02-06T07:53:22.995Z,99.99
2019-02-06T07:54:22.717Z,99.99
2019-02-06T07:55:22.698Z,99.99
2019-02-06T07:56:22.936Z,99.99
2019-02-06T07:57:23.250Z,99.99
2019-02-06T07:58:22.882Z,99.99
2019-02-06T07:59:22.616Z,99.99
2019-02-06T08:00:22.839Z,99.99
2019-02-06T08:01:22.567Z,99.99
2019-02-06T08:02:22.549Z,99.99
2019-02-06T08:03:22.780Z,99.99
2019-02-06T08:04:22.786Z,99.99
2019-02-06T08:05:22.735Z,99.99
2019-02-06T08:06:22.713Z,99.99
2019-02-06T08:07:22.694Z,99.99
2019-02-06T08:08:22.669Z,99.99
2019-02-06T08:09:22.390Z,99.99
2019-02-06T08:10:22.620Z,99.99
2019-02-06T08:11:22.640Z,99.99
2019-02-06T08:12:22.744Z,99.99
2019-02-06T08:13:22.319Z,99.99
2019-02-06T08:14:22.551Z,99.99
2019-02-06T08:15:22.266Z,99.99
2019-02-06T08:16:22.504Z,99.99
2019-02-06T08:17:22.222Z,99.99
2019-02-06T08:18:22.204Z,99.99
2019-02-06T08:19:22.177Z,99.99
2019-02-06T08:20:22.411Z,99.99
2019-02-06T08:21:22.129Z,99.99
2019-02-06T08:22:22.387Z,99.99
2019-02-06T08:23:22.129Z,99.99
2019-02-06T08:24:22.329Z,99.99
2019-02-06T08:25:22.305Z,99.99
2019-02-06T08:26:22.279Z,99.99
2019-02-06T08:27:22.418Z,99.99
2019-02-06T08:28:22.244Z,99.99
2019-02-06T08:29:21.970Z,99.99
2019-02-06T08:30:22.206Z,99.99
2019-02-06T08:31:22.179Z,99.99
2019-02-06T08:32:21.908Z,99.99
2019-02-06T08:33:21.889Z,99.99
2019-02-06T08:34:21.868Z,99.99
2019-02-06T08:35:22.395Z,99.99
2019-02-06T08:36:22.079Z,99.99
2019-02-06T08:37:22.061Z,99.99
2019-02-06T08:38:22.033Z,99.99
2019-02-06T08:39:22.025Z,99.99
2019-02-06T08:40:21.742Z,99.99
2019-02-06T08:41:21.716Z,99.99
2019-02-06T08:42:21.954Z,99.99
2019-02-06T08:43:21.927Z,99.99
2019-02-06T08:44:21.914Z,99.99
2019-02-06T08:45:21.894Z,99.99
2019-02-06T08:46:21.627Z,99.99
2019-02-06T08:47:21.858Z,99.99
2019-02-06T08:48:21.837Z,99.99
2019-02-06T08:49:21.547Z,99.99
2019-02-06T08:50:22.041Z,99.99
2019-02-06T08:51:21.513Z,99.99
2019-02-06T08:52:21.499Z,99.99
2019-02-06T08:53:21.726Z,99.99
2019-02-06T08:54:22.865Z,99.99
2019-02-06T08:55:21.436Z,99.99
2019-02-06T08:56:21.484Z,99.99
2019-02-06T08:57:21.645Z,99.99
2019-02-06T08:58:21.739Z,99.99
2019-02-06T08:59:21.348Z,99.99
2019-02-06T09:00:21.327Z,99.99
2019-02-06T09:01:21.309Z,99.99
2019-02-06T09:02:21.287Z,99.99
2019-02-06T09:03:21.550Z,99.99
2019-02-06T09:04:21.491Z,99.99
2019-02-06T09:05:21.783Z,99.99
2019-02-06T09:06:21.206Z,99.99
2019-02-06T09:07:21.181Z,99.99
2019-02-06T09:08:21.422Z,99.99
2019-02-06T09:09:21.150Z,99.99
2019-02-06T09:10:21.380Z,99.99
2019-02-06T09:11:21.113Z,99.99
2019-02-06T09:12:21.338Z,99.99
2019-02-06T09:13:21.726Z,99.99
2019-02-06T09:14:21.300Z,99.99
2019-02-06T09:15:21.283Z,99.99
2019-02-06T09:16:21.253Z,99.99
2019-02-06T09:17:21.260Z,99.99
2019-02-06T09:18:21.218Z,99.99
2019-02-06T09:19:21.411Z,99.99
2019-02-06T09:20:21.190Z,99.99
2019-02-06T09:21:20.906Z,99.99
2019-02-06T09:22:21.140Z,99.99
2019-02-06T09:23:21.113Z,99.99
2019-02-06T09:24:21.099Z,99.99
2019-02-06T09:25:21.078Z,99.99
2019-02-06T09:26:21.055Z,99.99
2019-02-06T09:27:20.784Z,99.99
2019-02-06T09:28:21.045Z,99.99
2019-02-06T09:29:21.003Z,99.99
2019-02-06T09:30:20.977Z,99.99
2019-02-06T09:31:20.703Z,99.99
2019-02-06T09:32:20.685Z,99.99
2019-02-06T09:33:20.684Z,99.99
2019-02-06T09:34:20.647Z,99.99
2019-02-06T09:35:20.928Z,99.99
2019-02-06T09:36:20.606Z,99.99
2019-02-06T09:37:20.832Z,99.99
2019-02-06T09:38:20.819Z,99.99
2019-02-06T09:39:20.541Z,99.99
2019-02-06T09:40:20.797Z,99.99
2019-02-06T09:41:20.791Z,99.99
2019-02-06T09:42:20.488Z,99.99
2019-02-06T09:43:20.583Z,99.99
2019-02-06T09:44:20.443Z,99.99
2019-02-06T09:45:20.422Z,99.99
2019-02-06T09:46:20.660Z,99.99
2019-02-06T09:47:20.641Z,99.99
2019-02-06T09:48:20.614Z,99.99
2019-02-06T09:49:20.341Z,99.99
2019-02-06T09:50:20.597Z,99.99
2019-02-06T09:51:22.097Z,99.99
2019-02-06T09:52:20.545Z,99.99
2019-02-06T09:53:20.265Z,99.99
2019-02-06T09:54:20.501Z,99.99
2019-02-06T09:55:20.486Z,99.99
2019-02-06T09:56:20.463Z,99.99
2019-02-06T09:57:20.443Z,99.99
2019-02-06T09:58:20.688Z,99.99
2019-02-06T09:59:20.405Z,99.99
2019-02-06T10:00:20.131Z,99.99
2019-02-06T10:01:21.471Z,99.99
2019-02-06T10:02:20.357Z,99.99
2019-02-06T10:03:20.075Z,99.99
2019-02-06T10:04:20.315Z,99.99
2019-02-06T10:05:20.318Z,99.99
2019-02-06T10:06:20.628Z,99.99
2019-02-06T10:07:19.998Z,99.99
2019-02-06T10:08:20.225Z,99.99
2019-02-06T10:09:25.582Z,99.99
2019-02-06T10:10:19.959Z,99.99
2019-02-06T10:11:20.164Z,99.99
2019-02-06T10:12:20.155Z,99.99
2019-02-06T10:13:19.955Z,99.99
2019-02-06T10:14:20.116Z,99.99
2019-02-06T10:15:20.092Z,99.99
2019-02-06T10:16:22.465Z,99.99
2019-02-06T10:17:20.063Z,99.99
2019-02-06T10:18:20.034Z,99.99
2019-02-06T10:19:20.018Z,99.99
2019-02-06T10:20:19.741Z,99.99
2019-02-06T10:21:20.321Z,99.99
2019-02-06T10:22:19.702Z,99.99
2019-02-06T10:23:19.676Z,99.99
2019-02-06T10:24:21.306Z,99.99
2019-02-06T10:25:19.991Z,99.99
2019-02-06T10:26:19.620Z,99.99
2019-02-06T10:27:19.858Z,99.99
2019-02-06T10:28:19.590Z,99.99
2019-02-06T10:29:19.869Z,99.99
2019-02-06T10:30:19.546Z,99.99
2019-02-06T10:31:19.797Z,99.99
2019-02-06T10:32:19.507Z,99.99
2019-02-06T10:33:21.494Z,99.99
2019-02-06T10:34:19.720Z,99.99
2019-02-06T10:35:19.699Z,99.99
2019-02-06T10:36:19.758Z,99.99
2019-02-06T10:37:19.667Z,99.99
2019-02-06T10:38:19.642Z,99.99
2019-02-06T10:39:19.624Z,99.99
2019-02-06T10:40:19.352Z,99.99
2019-02-06T10:41:19.330Z,99.99
2019-02-06T10:42:19.317Z,99.99
2019-02-06T10:43:31.150Z,99.99
2019-02-06T10:44:19.439Z,99.99
2019-02-06T10:45:20.967Z,99.99
2019-02-06T10:46:20.946Z,99.99
2019-02-06T10:47:19.487Z,99.99
2019-02-06T10:48:19.197Z,99.99
2019-02-06T10:49:19.467Z,99.99
2019-02-06T10:50:19.162Z,99.99
2019-02-06T10:51:19.418Z,99.99
2019-02-06T10:52:19.117Z,99.99
2019-02-06T10:53:19.094Z,99.99
2019-02-06T10:54:19.336Z,99.99
2019-02-06T10:55:19.064Z,99.99
2019-02-06T10:56:19.298Z,99.99
2019-02-06T10:57:19.022Z,99.99
2019-02-06T10:58:19.259Z,99.99
2019-02-06T10:59:19.512Z,99.99
2019-02-06T11:00:18.974Z,99.99
2019-02-06T11:01:19.202Z,99.99
2019-02-06T11:02:19.205Z,99.99
2019-02-06T11:03:18.928Z,99.99
2019-02-06T11:04:19.256Z,99.99
2019-02-06T11:05:19.139Z,99.99
2019-02-06T11:06:19.111Z,99.99
2019-02-06T11:07:18.837Z,99.99
2019-02-06T11:08:19.073Z,99.99
2019-02-06T11:09:18.797Z,99.99
2019-02-06T11:10:18.776Z,99.99
2019-02-06T11:11:18.762Z,99.99
2019-02-06T11:12:18.995Z,99.93
2019-02-06T11:13:18.724Z,99.99
2019-02-06T11:14:18.926Z,99.99
2019-02-06T11:15:18.685Z,99.93
2019-02-06T11:16:18.923Z,99.99
2019-02-06T11:17:18.902Z,99.99
2019-02-06T11:18:18.641Z,99.99
2019-02-06T11:19:18.810Z,99.99
2019-02-06T11:20:18.593Z,99.99
2019-02-06T11:21:18.693Z,99.99
2019-02-06T11:22:18.892Z,99.99
2019-02-06T11:23:18.882Z,99.99
2019-02-06T11:24:18.527Z,99.99
2019-02-06T11:25:18.500Z,99.99
2019-02-06T11:26:18.734Z,99.88
2019-02-06T11:27:18.722Z,99.79
2019-02-06T11:28:18.732Z,99.99
2019-02-06T11:29:18.434Z,99.99
2019-02-06T11:30:18.405Z,99.99
2019-02-06T11:31:18.652Z,99.99
2019-02-06T11:32:18.379Z,99.99
2019-02-06T11:33:18.606Z,99.99
2019-02-06T11:34:18.335Z,99.99
2019-02-06T11:35:18.318Z,99.99
2019-02-06T11:36:26.780Z,99.99
2019-02-06T11:37:18.772Z,99.99
2019-02-06T11:38:18.522Z,99.99
2019-02-06T11:39:18.490Z,99.99
2019-02-06T11:40:18.473Z,99.6
2019-02-06T11:41:18.202Z,99.41
2019-02-06T11:42:18.513Z,99.99
2019-02-06T11:43:18.159Z,99.99
2019-02-06T11:44:18.159Z,99.79
2019-02-06T11:45:18.711Z,99.99
2019-02-06T11:46:18.367Z,99.99
2019-02-06T11:47:18.345Z,99.99
2019-02-06T11:48:18.072Z,99.99
2019-02-06T11:49:18.307Z,99.99
2019-02-06T11:50:18.289Z,99.99
2019-02-06T11:51:18.297Z,99.99
2019-02-06T11:52:18.000Z,99.79
2019-02-06T11:53:17.993Z,99.99
2019-02-06T11:54:18.213Z,99.99
2019-02-06T11:55:18.203Z,99.99
2019-02-06T11:56:18.187Z,99.98
2019-02-06T11:57:18.173Z,99.99
2019-02-06T11:58:17.896Z,99.69
2019-02-06T11:59:18.125Z,99.99
2019-02-06T12:00:18.519Z,99.99
2019-02-06T12:01:17.853Z,99.99
2019-02-06T12:02:18.069Z,99.99
2019-02-06T12:03:18.059Z,99.36
2019-02-06T12:04:17.778Z,99.27
2019-02-06T12:05:18.031Z,99.55
2019-02-06T12:06:18.027Z,99.46
2019-02-06T12:07:17.733Z,98.98
2019-02-06T12:08:18.407Z,98.79
2019-02-06T12:09:17.946Z,99.36
2019-02-06T12:10:17.929Z,98.98
2019-02-06T12:11:17.913Z,99.36
2019-02-06T12:12:17.897Z,99.36
2019-02-06T12:13:17.871Z,99.36
2019-02-06T12:14:17.608Z,99.74
2019-02-06T12:15:18.287Z,99.46
2019-02-06T12:16:17.890Z,99.36
2019-02-06T12:17:17.810Z,99.36
2019-02-06T12:18:17.537Z,99.99
2019-02-06T12:19:17.769Z,99.46
2019-02-06T12:20:17.753Z,99.99
2019-02-06T12:21:20.312Z,99.99
2019-02-06T12:22:17.717Z,99.99
2019-02-06T12:23:17.965Z,99.99
2019-02-06T12:24:17.680Z,99.99
2019-02-06T12:25:17.673Z,99.99
2019-02-06T12:26:17.657Z,99.99
2019-02-06T12:27:17.638Z,99.55
2019-02-06T12:28:17.610Z,99.17
2019-02-06T12:29:17.608Z,99.65
2019-02-06T12:30:17.611Z,99.99
2019-02-06T12:31:17.617Z,99.99
2019-02-06T12:32:17.286Z,99.99
2019-02-06T12:33:17.621Z,99.99
2019-02-06T12:34:17.517Z,99.99
2019-02-06T12:35:17.488Z,99.99
2019-02-06T12:36:18.109Z,99.99
2019-02-06T12:37:17.648Z,99.99
2019-02-06T12:38:17.438Z,99.99
2019-02-06T12:39:17.428Z,99.99
2019-02-06T12:40:24.053Z,99.99
2019-02-06T12:41:17.134Z,99.99
2019-02-06T12:42:17.359Z,99.99
2019-02-06T12:43:17.355Z,99.99
2019-02-06T12:44:17.340Z,99.99
2019-02-06T12:45:17.320Z,99.17
2019-02-06T12:46:17.046Z,99.65
2019-02-06T12:47:17.234Z,99.6
2019-02-06T12:48:17.262Z,99.27
2019-02-06T12:49:16.990Z,99.27
2019-02-06T12:50:17.237Z,99.99
2019-02-06T12:51:16.953Z,99.99
2019-02-06T12:52:17.194Z,99.98